sensor_id;sensor_type;location;lat;lon;timestamp;temperature;humidity
71188;DHT22;58893;53.130;8.158;2022-10-31T00:01:37;17.10;90.70
71188;DHT22;58893;53.130;8.158;2022-10-31T00:04:03;17.10;90.60
71188;DHT22;58893;53.130;8.158;2022-10-31T00:06:29;17.10;90.50
71188;DHT22;58893;53.130;8.158;2022-10-31T00:08:58;17.10;90.50
71188;DHT22;58893;53.130;8.158;2022-10-31T00:11:24;17.10;90.50
71188;DHT22;58893;53.130;8.158;2022-10-31T00:13:50;17.00;90.40
71188;DHT22;58893;53.130;8.158;2022-10-31T00:16:18;17.00;90.50
71188;DHT22;58893;53.130;8.158;2022-10-31T00:18:47;17.00;90.40
71188;DHT22;58893;53.130;8.158;2022-10-31T00:21:12;17.00;90.40
71188;DHT22;58893;53.130;8.158;2022-10-31T00:23:38;17.00;90.40
71188;DHT22;58893;53.130;8.158;2022-10-31T00:26:04;17.00;90.40
71188;DHT22;58893;53.130;8.158;2022-10-31T00:28:30;16.90;90.30
71188;DHT22;58893;53.130;8.158;2022-10-31T00:31:01;16.90;90.20
71188;DHT22;58893;53.130;8.158;2022-10-31T00:33:27;16.90;90.10
71188;DHT22;58893;53.130;8.158;2022-10-31T00:35:53;16.90;90.10
71188;DHT22;58893;53.130;8.158;2022-10-31T00:38:19;16.90;90.00
71188;DHT22;58893;53.130;8.158;2022-10-31T00:40:44;16.80;89.90
71188;DHT22;58893;53.130;8.158;2022-10-31T00:43:10;16.80;89.90
71188;DHT22;58893;53.130;8.158;2022-10-31T00:45:35;16.80;89.80
71188;DHT22;58893;53.130;8.158;2022-10-31T00:48:01;16.80;89.80
71188;DHT22;58893;53.130;8.158;2022-10-31T00:50:26;16.80;89.90
71188;DHT22;58893;53.130;8.158;2022-10-31T00:52:52;16.70;90.10
71188;DHT22;58893;53.130;8.158;2022-10-31T00:55:17;16.70;89.70
71188;DHT22;58893;53.130;8.158;2022-10-31T00:57:46;16.70;89.40
71188;DHT22;58893;53.130;8.158;2022-10-31T01:00:12;16.70;89.00
71188;DHT22;58893;53.130;8.158;2022-10-31T01:02:37;16.70;88.60
71188;DHT22;58893;53.130;8.158;2022-10-31T01:05:03;16.70;88.40
71188;DHT22;58893;53.130;8.158;2022-10-31T01:07:29;16.60;88.10
71188;DHT22;58893;53.130;8.158;2022-10-31T01:09:54;16.60;87.80
71188;DHT22;58893;53.130;8.158;2022-10-31T01:12:20;16.60;87.60
71188;DHT22;58893;53.130;8.158;2022-10-31T01:14:45;16.60;87.30
71188;DHT22;58893;53.130;8.158;2022-10-31T01:17:12;16.50;87.00
71188;DHT22;58893;53.130;8.158;2022-10-31T01:19:37;16.50;86.80
71188;DHT22;58893;53.130;8.158;2022-10-31T01:22:03;16.50;86.70
71188;DHT22;58893;53.130;8.158;2022-10-31T01:24:29;16.40;86.60
71188;DHT22;58893;53.130;8.158;2022-10-31T01:26:54;16.40;86.60
71188;DHT22;58893;53.130;8.158;2022-10-31T01:29:20;16.40;86.50
71188;DHT22;58893;53.130;8.158;2022-10-31T01:31:45;16.40;86.50
71188;DHT22;58893;53.130;8.158;2022-10-31T01:34:14;16.30;86.50
71188;DHT22;58893;53.130;8.158;2022-10-31T01:36:41;16.30;86.50
71188;DHT22;58893;53.130;8.158;2022-10-31T01:39:10;16.30;86.60
71188;DHT22;58893;53.130;8.158;2022-10-31T01:41:40;16.30;86.70
71188;DHT22;58893;53.130;8.158;2022-10-31T01:49:17;16.20;86.50
71188;DHT22;58893;53.130;8.158;2022-10-31T01:52:02;16.20;86.40
71188;DHT22;58893;53.130;8.158;2022-10-31T01:54:36;16.20;86.20
71188;DHT22;58893;53.130;8.158;2022-10-31T01:57:05;16.20;85.90
71188;DHT22;58893;53.130;8.158;2022-10-31T01:59:34;16.20;85.50
71188;DHT22;58893;53.130;8.158;2022-10-31T02:02:03;16.10;85.10
71188;DHT22;58893;53.130;8.158;2022-10-31T02:04:29;16.10;85.00
71188;DHT22;58893;53.130;8.158;2022-10-31T02:07:02;16.10;85.20
71188;DHT22;58893;53.130;8.158;2022-10-31T02:09:30;16.10;85.50
71188;DHT22;58893;53.130;8.158;2022-10-31T02:11:58;16.10;85.70
71188;DHT22;58893;53.130;8.158;2022-10-31T02:14:26;16.10;86.10
71188;DHT22;58893;53.130;8.158;2022-10-31T02:16:56;16.10;86.40
71188;DHT22;58893;53.130;8.158;2022-10-31T02:19:37;16.00;86.50
71188;DHT22;58893;53.130;8.158;2022-10-31T02:22:16;16.10;86.70
71188;DHT22;58893;53.130;8.158;2022-10-31T02:30:14;16.00;86.90
71188;DHT22;58893;53.130;8.158;2022-10-31T02:33:14;16.00;87.20
71188;DHT22;58893;53.130;8.158;2022-10-31T02:44:30;16.00;87.60
71188;DHT22;58893;53.130;8.158;2022-10-31T02:47:14;16.00;87.50
71188;DHT22;58893;53.130;8.158;2022-10-31T02:49:50;16.00;87.30
71188;DHT22;58893;53.130;8.158;2022-10-31T02:52:28;16.00;87.10
71188;DHT22;58893;53.130;8.158;2022-10-31T02:54:54;16.00;86.80
71188;DHT22;58893;53.130;8.158;2022-10-31T02:57:30;16.00;86.50
71188;DHT22;58893;53.130;8.158;2022-10-31T03:00:03;16.00;86.10
71188;DHT22;58893;53.130;8.158;2022-10-31T03:08:13;15.90;85.70
71188;DHT22;58893;53.130;8.158;2022-10-31T03:10:53;15.90;85.80
71188;DHT22;58893;53.130;8.158;2022-10-31T03:15:49;15.90;85.80
71188;DHT22;58893;53.130;8.158;2022-10-31T03:18:28;15.80;85.40
71188;DHT22;58893;53.130;8.158;2022-10-31T03:21:12;15.80;84.90
71188;DHT22;58893;53.130;8.158;2022-10-31T03:23:39;15.80;84.50
71188;DHT22;58893;53.130;8.158;2022-10-31T03:26:08;15.80;84.20
71188;DHT22;58893;53.130;8.158;2022-10-31T03:28:39;15.70;83.90
71188;DHT22;58893;53.130;8.158;2022-10-31T03:31:07;15.70;83.90
71188;DHT22;58893;53.130;8.158;2022-10-31T03:33:35;15.70;83.90
71188;DHT22;58893;53.130;8.158;2022-10-31T03:36:03;15.70;84.00
71188;DHT22;58893;53.130;8.158;2022-10-31T03:38:31;15.60;83.90
71188;DHT22;58893;53.130;8.158;2022-10-31T03:41:02;15.60;83.80
71188;DHT22;58893;53.130;8.158;2022-10-31T03:43:33;15.60;84.10
71188;DHT22;58893;53.130;8.158;2022-10-31T03:46:02;15.60;84.50
71188;DHT22;58893;53.130;8.158;2022-10-31T03:48:28;15.60;84.70
71188;DHT22;58893;53.130;8.158;2022-10-31T03:53:57;15.60;84.50
71188;DHT22;58893;53.130;8.158;2022-10-31T03:56:36;15.50;84.20
71188;DHT22;58893;53.130;8.158;2022-10-31T03:59:13;15.50;84.40
71188;DHT22;58893;53.130;8.158;2022-10-31T04:01:46;15.50;84.60
71188;DHT22;58893;53.130;8.158;2022-10-31T04:04:13;15.50;84.90
71188;DHT22;58893;53.130;8.158;2022-10-31T04:06:42;15.50;85.90
71188;DHT22;58893;53.130;8.158;2022-10-31T04:09:09;15.50;85.40
71188;DHT22;58893;53.130;8.158;2022-10-31T04:11:40;15.50;85.60
71188;DHT22;58893;53.130;8.158;2022-10-31T04:14:08;15.50;85.50
71188;DHT22;58893;53.130;8.158;2022-10-31T04:16:34;15.50;85.70
71188;DHT22;58893;53.130;8.158;2022-10-31T04:19:00;15.50;85.90
71188;DHT22;58893;53.130;8.158;2022-10-31T04:21:29;15.40;86.00
71188;DHT22;58893;53.130;8.158;2022-10-31T04:23:55;15.40;86.20
71188;DHT22;58893;53.130;8.158;2022-10-31T04:26:21;15.40;86.40
71188;DHT22;58893;53.130;8.158;2022-10-31T04:28:47;15.40;86.70
71188;DHT22;58893;53.130;8.158;2022-10-31T04:31:13;15.40;86.80
71188;DHT22;58893;53.130;8.158;2022-10-31T04:33:39;15.40;86.70
71188;DHT22;58893;53.130;8.158;2022-10-31T04:36:04;15.40;86.40
71188;DHT22;58893;53.130;8.158;2022-10-31T04:38:30;15.40;85.90
71188;DHT22;58893;53.130;8.158;2022-10-31T04:40:56;15.40;85.60
71188;DHT22;58893;53.130;8.158;2022-10-31T04:43:22;15.40;86.20
71188;DHT22;58893;53.130;8.158;2022-10-31T04:45:47;15.40;85.60
71188;DHT22;58893;53.130;8.158;2022-10-31T04:48:13;15.40;85.50
71188;DHT22;58893;53.130;8.158;2022-10-31T04:50:39;15.40;85.30
71188;DHT22;58893;53.130;8.158;2022-10-31T04:53:05;15.30;85.10
71188;DHT22;58893;53.130;8.158;2022-10-31T04:55:31;15.30;85.10
71188;DHT22;58893;53.130;8.158;2022-10-31T04:57:56;15.30;85.10
71188;DHT22;58893;53.130;8.158;2022-10-31T05:00:23;15.30;85.70
71188;DHT22;58893;53.130;8.158;2022-10-31T05:02:53;15.30;84.90
71188;DHT22;58893;53.130;8.158;2022-10-31T05:05:30;15.30;84.70
71188;DHT22;58893;53.130;8.158;2022-10-31T05:07:56;15.20;84.60
71188;DHT22;58893;53.130;8.158;2022-10-31T05:10:24;15.20;84.70
71188;DHT22;58893;53.130;8.158;2022-10-31T05:12:58;15.20;84.70
71188;DHT22;58893;53.130;8.158;2022-10-31T05:15:26;15.10;84.80
71188;DHT22;58893;53.130;8.158;2022-10-31T05:17:52;15.10;85.00
71188;DHT22;58893;53.130;8.158;2022-10-31T05:20:19;15.10;85.20
71188;DHT22;58893;53.130;8.158;2022-10-31T05:22:47;15.10;85.30
71188;DHT22;58893;53.130;8.158;2022-10-31T05:25:13;15.10;85.50
71188;DHT22;58893;53.130;8.158;2022-10-31T05:27:40;15.10;85.50
71188;DHT22;58893;53.130;8.158;2022-10-31T05:30:07;15.10;85.60
71188;DHT22;58893;53.130;8.158;2022-10-31T05:32:40;15.10;85.70
71188;DHT22;58893;53.130;8.158;2022-10-31T05:35:08;15.10;85.80
71188;DHT22;58893;53.130;8.158;2022-10-31T05:37:34;15.10;85.80
71188;DHT22;58893;53.130;8.158;2022-10-31T05:40:01;15.10;85.80
71188;DHT22;58893;53.130;8.158;2022-10-31T05:42:27;15.10;85.70
71188;DHT22;58893;53.130;8.158;2022-10-31T05:44:52;15.10;85.70
71188;DHT22;58893;53.130;8.158;2022-10-31T05:47:18;15.10;85.60
71188;DHT22;58893;53.130;8.158;2022-10-31T05:49:44;15.10;85.40
71188;DHT22;58893;53.130;8.158;2022-10-31T05:52:09;15.10;85.20
71188;DHT22;58893;53.130;8.158;2022-10-31T05:54:35;15.10;85.10
71188;DHT22;58893;53.130;8.158;2022-10-31T05:57:00;15.10;85.10
71188;DHT22;58893;53.130;8.158;2022-10-31T05:59:26;15.10;84.90
71188;DHT22;58893;53.130;8.158;2022-10-31T06:01:51;15.10;84.70
71188;DHT22;58893;53.130;8.158;2022-10-31T06:04:17;15.10;84.70
71188;DHT22;58893;53.130;8.158;2022-10-31T06:06:42;15.10;84.60
71188;DHT22;58893;53.130;8.158;2022-10-31T06:09:08;15.10;84.50
71188;DHT22;58893;53.130;8.158;2022-10-31T06:11:33;15.00;84.40
71188;DHT22;58893;53.130;8.158;2022-10-31T06:13:59;15.00;84.40
71188;DHT22;58893;53.130;8.158;2022-10-31T06:16:25;15.00;84.40
71188;DHT22;58893;53.130;8.158;2022-10-31T06:18:50;15.00;84.30
71188;DHT22;58893;53.130;8.158;2022-10-31T06:21:16;15.00;84.30
71188;DHT22;58893;53.130;8.158;2022-10-31T06:23:41;15.10;84.50
71188;DHT22;58893;53.130;8.158;2022-10-31T06:26:07;15.10;84.50
71188;DHT22;58893;53.130;8.158;2022-10-31T06:28:32;15.00;84.30
71188;DHT22;58893;53.130;8.158;2022-10-31T06:30:58;15.00;84.30
71188;DHT22;58893;53.130;8.158;2022-10-31T06:33:23;15.00;84.40
71188;DHT22;58893;53.130;8.158;2022-10-31T06:35:49;15.00;84.50
71188;DHT22;58893;53.130;8.158;2022-10-31T06:38:14;15.00;84.50
71188;DHT22;58893;53.130;8.158;2022-10-31T06:40:40;15.00;84.60
71188;DHT22;58893;53.130;8.158;2022-10-31T06:43:06;15.00;84.80
71188;DHT22;58893;53.130;8.158;2022-10-31T06:45:31;14.90;84.90
71188;DHT22;58893;53.130;8.158;2022-10-31T06:47:57;14.90;84.90
71188;DHT22;58893;53.130;8.158;2022-10-31T06:50:23;14.90;85.00
71188;DHT22;58893;53.130;8.158;2022-10-31T06:52:53;14.90;85.00
71188;DHT22;58893;53.130;8.158;2022-10-31T06:55:20;14.90;85.00
71188;DHT22;58893;53.130;8.158;2022-10-31T06:57:56;14.90;85.00
71188;DHT22;58893;53.130;8.158;2022-10-31T07:00:22;14.90;84.80
71188;DHT22;58893;53.130;8.158;2022-10-31T07:02:59;14.90;84.80
71188;DHT22;58893;53.130;8.158;2022-10-31T07:05:26;14.90;85.00
71188;DHT22;58893;53.130;8.158;2022-10-31T07:07:55;14.90;85.10
71188;DHT22;58893;53.130;8.158;2022-10-31T07:10:23;14.90;85.80
71188;DHT22;58893;53.130;8.158;2022-10-31T07:12:48;14.90;85.10
71188;DHT22;58893;53.130;8.158;2022-10-31T07:15:18;14.90;85.00
71188;DHT22;58893;53.130;8.158;2022-10-31T07:17:44;14.90;84.90
71188;DHT22;58893;53.130;8.158;2022-10-31T07:20:10;14.90;84.80
71188;DHT22;58893;53.130;8.158;2022-10-31T07:22:36;14.90;84.70
71188;DHT22;58893;53.130;8.158;2022-10-31T07:25:02;14.90;84.50
71188;DHT22;58893;53.130;8.158;2022-10-31T07:27:27;14.90;84.50
71188;DHT22;58893;53.130;8.158;2022-10-31T07:29:53;14.90;84.50
71188;DHT22;58893;53.130;8.158;2022-10-31T07:32:18;14.90;84.50
71188;DHT22;58893;53.130;8.158;2022-10-31T07:34:44;14.90;84.40
71188;DHT22;58893;53.130;8.158;2022-10-31T07:37:10;14.90;84.40
71188;DHT22;58893;53.130;8.158;2022-10-31T07:39:35;14.90;84.20
71188;DHT22;58893;53.130;8.158;2022-10-31T07:42:01;14.90;84.20
71188;DHT22;58893;53.130;8.158;2022-10-31T07:44:26;14.90;84.20
71188;DHT22;58893;53.130;8.158;2022-10-31T07:46:52;14.90;84.20
71188;DHT22;58893;53.130;8.158;2022-10-31T07:49:17;14.90;84.30
71188;DHT22;58893;53.130;8.158;2022-10-31T07:51:43;14.90;85.10
71188;DHT22;58893;53.130;8.158;2022-10-31T07:54:08;14.90;84.60
71188;DHT22;58893;53.130;8.158;2022-10-31T07:56:34;14.80;84.60
71188;DHT22;58893;53.130;8.158;2022-10-31T07:58:59;14.80;84.70
71188;DHT22;58893;53.130;8.158;2022-10-31T08:01:25;14.80;84.80
71188;DHT22;58893;53.130;8.158;2022-10-31T08:03:51;14.80;85.00
71188;DHT22;58893;53.130;8.158;2022-10-31T08:06:16;14.80;85.30
71188;DHT22;58893;53.130;8.158;2022-10-31T08:08:42;14.80;85.20
71188;DHT22;58893;53.130;8.158;2022-10-31T08:11:07;14.80;85.20
71188;DHT22;58893;53.130;8.158;2022-10-31T08:13:33;14.80;85.10
71188;DHT22;58893;53.130;8.158;2022-10-31T08:15:59;14.80;85.10
71188;DHT22;58893;53.130;8.158;2022-10-31T08:18:29;14.80;85.20
71188;DHT22;58893;53.130;8.158;2022-10-31T08:20:55;14.80;85.30
71188;DHT22;58893;53.130;8.158;2022-10-31T08:23:20;14.80;85.20
71188;DHT22;58893;53.130;8.158;2022-10-31T08:25:46;14.80;85.10
71188;DHT22;58893;53.130;8.158;2022-10-31T08:28:13;14.80;84.90
71188;DHT22;58893;53.130;8.158;2022-10-31T08:30:40;14.80;84.90
71188;DHT22;58893;53.130;8.158;2022-10-31T08:33:14;14.80;85.10
71188;DHT22;58893;53.130;8.158;2022-10-31T08:35:40;14.80;85.20
71188;DHT22;58893;53.130;8.158;2022-10-31T08:38:08;14.80;85.40
71188;DHT22;58893;53.130;8.158;2022-10-31T08:40:34;14.80;85.70
71188;DHT22;58893;53.130;8.158;2022-10-31T08:43:05;14.80;85.80
71188;DHT22;58893;53.130;8.158;2022-10-31T08:45:33;14.80;85.70
71188;DHT22;58893;53.130;8.158;2022-10-31T08:48:00;14.80;85.70
71188;DHT22;58893;53.130;8.158;2022-10-31T08:50:27;14.80;85.70
71188;DHT22;58893;53.130;8.158;2022-10-31T08:52:52;14.80;86.30
71188;DHT22;58893;53.130;8.158;2022-10-31T08:55:18;14.80;85.80
71188;DHT22;58893;53.130;8.158;2022-10-31T08:57:44;14.80;86.00
71188;DHT22;58893;53.130;8.158;2022-10-31T09:00:10;14.80;86.30
71188;DHT22;58893;53.130;8.158;2022-10-31T09:02:35;14.80;86.50
71188;DHT22;58893;53.130;8.158;2022-10-31T09:05:02;14.90;87.60
71188;DHT22;58893;53.130;8.158;2022-10-31T09:07:28;14.90;87.10
71188;DHT22;58893;53.130;8.158;2022-10-31T09:09:53;14.90;87.20
71188;DHT22;58893;53.130;8.158;2022-10-31T09:12:21;14.90;87.50
71188;DHT22;58893;53.130;8.158;2022-10-31T09:14:46;15.00;87.90
71188;DHT22;58893;53.130;8.158;2022-10-31T09:17:12;15.00;88.00
71188;DHT22;58893;53.130;8.158;2022-10-31T09:19:37;15.10;88.30
71188;DHT22;58893;53.130;8.158;2022-10-31T09:22:04;15.10;89.10
71188;DHT22;58893;53.130;8.158;2022-10-31T09:24:29;15.20;88.90
71188;DHT22;58893;53.130;8.158;2022-10-31T09:26:55;15.20;89.20
71188;DHT22;58893;53.130;8.158;2022-10-31T09:29:20;15.30;89.50
71188;DHT22;58893;53.130;8.158;2022-10-31T09:31:46;15.40;89.90
71188;DHT22;58893;53.130;8.158;2022-10-31T09:34:11;15.40;90.00
71188;DHT22;58893;53.130;8.158;2022-10-31T09:36:37;15.50;90.10
71188;DHT22;58893;53.130;8.158;2022-10-31T09:39:03;15.60;90.20
71188;DHT22;58893;53.130;8.158;2022-10-31T09:41:45;15.60;90.30
71188;DHT22;58893;53.130;8.158;2022-10-31T09:53:10;15.80;90.40
71188;DHT22;58893;53.130;8.158;2022-10-31T09:55:41;15.90;90.50
71188;DHT22;58893;53.130;8.158;2022-10-31T09:58:15;15.90;90.50
71188;DHT22;58893;53.130;8.158;2022-10-31T10:00:43;15.90;90.50
71188;DHT22;58893;53.130;8.158;2022-10-31T10:03:17;16.00;90.60
71188;DHT22;58893;53.130;8.158;2022-10-31T10:06:44;16.00;90.60
71188;DHT22;58893;53.130;8.158;2022-10-31T10:08:51;16.00;90.60
71188;DHT22;58893;53.130;8.158;2022-10-31T10:17:01;16.10;90.80
71188;DHT22;58893;53.130;8.158;2022-10-31T10:19:57;16.10;90.80
71188;DHT22;58893;53.130;8.158;2022-10-31T10:25:39;16.20;90.90
71188;DHT22;58893;53.130;8.158;2022-10-31T10:28:11;16.20;91.00
71188;DHT22;58893;53.130;8.158;2022-10-31T10:30:54;16.20;91.00
71188;DHT22;58893;53.130;8.158;2022-10-31T10:34:14;16.30;91.10
71188;DHT22;58893;53.130;8.158;2022-10-31T10:36:36;16.30;91.10
71188;DHT22;58893;53.130;8.158;2022-10-31T10:39:10;16.30;91.10
71188;DHT22;58893;53.130;8.158;2022-10-31T10:41:38;16.30;91.10
71188;DHT22;58893;53.130;8.158;2022-10-31T10:44:09;16.40;91.20
71188;DHT22;58893;53.130;8.158;2022-10-31T10:46:52;16.40;91.30
71188;DHT22;58893;53.130;8.158;2022-10-31T10:49:52;16.40;91.40
71188;DHT22;58893;53.130;8.158;2022-10-31T11:00:02;16.60;91.50
71188;DHT22;58893;53.130;8.158;2022-10-31T11:02:32;16.60;91.50
71188;DHT22;58893;53.130;8.158;2022-10-31T11:04:59;16.70;91.60
71188;DHT22;58893;53.130;8.158;2022-10-31T11:07:36;16.70;91.50
71188;DHT22;58893;53.130;8.158;2022-10-31T11:10:04;16.70;91.50
71188;DHT22;58893;53.130;8.158;2022-10-31T11:12:32;16.70;91.40
71188;DHT22;58893;53.130;8.158;2022-10-31T11:15:02;16.80;91.50
71188;DHT22;58893;53.130;8.158;2022-10-31T11:17:39;16.80;91.40
71188;DHT22;58893;53.130;8.158;2022-10-31T11:20:27;16.80;91.30
71188;DHT22;58893;53.130;8.158;2022-10-31T11:23:19;16.80;91.30
71188;DHT22;58893;53.130;8.158;2022-10-31T11:25:59;16.90;91.30
71188;DHT22;58893;53.130;8.158;2022-10-31T11:28:26;16.90;91.20
71188;DHT22;58893;53.130;8.158;2022-10-31T11:30:57;16.90;91.10
71188;DHT22;58893;53.130;8.158;2022-10-31T11:36:20;17.00;90.80
71188;DHT22;58893;53.130;8.158;2022-10-31T11:38:46;17.00;90.70
71188;DHT22;58893;53.130;8.158;2022-10-31T11:41:19;17.00;90.60
71188;DHT22;58893;53.130;8.158;2022-10-31T11:43:54;17.10;90.60
71188;DHT22;58893;53.130;8.158;2022-10-31T11:46:24;17.10;90.60
71188;DHT22;58893;53.130;8.158;2022-10-31T11:48:53;17.10;90.50
71188;DHT22;58893;53.130;8.158;2022-10-31T11:51:25;17.20;90.40
71188;DHT22;58893;53.130;8.158;2022-10-31T11:53:55;17.20;90.40
71188;DHT22;58893;53.130;8.158;2022-10-31T11:56:22;17.20;90.20
71188;DHT22;58893;53.130;8.158;2022-10-31T11:58:56;17.20;90.00
71188;DHT22;58893;53.130;8.158;2022-10-31T12:01:28;17.20;89.70
71188;DHT22;58893;53.130;8.158;2022-10-31T12:06:32;17.20;88.80
71188;DHT22;58893;53.130;8.158;2022-10-31T12:08:59;17.20;88.50
71188;DHT22;58893;53.130;8.158;2022-10-31T12:16:46;17.30;87.90
71188;DHT22;58893;53.130;8.158;2022-10-31T12:35:26;17.50;87.90
71188;DHT22;58893;53.130;8.158;2022-10-31T12:43:20;17.50;87.60
71188;DHT22;58893;53.130;8.158;2022-10-31T12:45:55;17.50;87.70
71188;DHT22;58893;53.130;8.158;2022-10-31T12:56:11;17.60;88.00
71188;DHT22;58893;53.130;8.158;2022-10-31T13:01:24;17.60;87.50
71188;DHT22;58893;53.130;8.158;2022-10-31T13:04:00;17.60;87.10
71188;DHT22;58893;53.130;8.158;2022-10-31T13:06:35;17.70;87.00
71188;DHT22;58893;53.130;8.158;2022-10-31T13:09:05;17.60;86.90
71188;DHT22;58893;53.130;8.158;2022-10-31T13:14:15;17.70;88.00
71188;DHT22;58893;53.130;8.158;2022-10-31T13:16:45;17.70;87.40
71188;DHT22;58893;53.130;8.158;2022-10-31T13:19:18;17.70;87.30
71188;DHT22;58893;53.130;8.158;2022-10-31T13:24:40;17.70;87.10
71188;DHT22;58893;53.130;8.158;2022-10-31T13:27:21;17.80;87.20
71188;DHT22;58893;53.130;8.158;2022-10-31T13:30:20;17.80;87.20
71188;DHT22;58893;53.130;8.158;2022-10-31T13:33:13;17.80;87.20
71188;DHT22;58893;53.130;8.158;2022-10-31T13:36:25;17.80;87.00
71188;DHT22;58893;53.130;8.158;2022-10-31T13:39:15;17.80;86.40
71188;DHT22;58893;53.130;8.158;2022-10-31T13:44:20;17.80;85.60
71188;DHT22;58893;53.130;8.158;2022-10-31T13:46:47;17.80;85.00
71188;DHT22;58893;53.130;8.158;2022-10-31T13:54:33;17.80;84.50
71188;DHT22;58893;53.130;8.158;2022-10-31T13:57:06;17.80;84.40
71188;DHT22;58893;53.130;8.158;2022-10-31T13:59:33;17.80;84.60
71188;DHT22;58893;53.130;8.158;2022-10-31T14:02:14;17.80;84.70
71188;DHT22;58893;53.130;8.158;2022-10-31T14:04:52;17.80;85.00
71188;DHT22;58893;53.130;8.158;2022-10-31T14:07:21;17.80;85.40
71188;DHT22;58893;53.130;8.158;2022-10-31T14:10:49;17.80;85.70
71188;DHT22;58893;53.130;8.158;2022-10-31T14:12:44;17.90;86.10
71188;DHT22;58893;53.130;8.158;2022-10-31T14:15:19;17.80;86.50
71188;DHT22;58893;53.130;8.158;2022-10-31T14:17:56;17.80;86.80
71188;DHT22;58893;53.130;8.158;2022-10-31T14:22:48;17.90;86.80
71188;DHT22;58893;53.130;8.158;2022-10-31T14:25:35;17.90;86.50
71188;DHT22;58893;53.130;8.158;2022-10-31T14:28:17;17.80;86.20
71188;DHT22;58893;53.130;8.158;2022-10-31T14:30:55;17.90;86.10
71188;DHT22;58893;53.130;8.158;2022-10-31T14:33:23;17.90;85.90
71188;DHT22;58893;53.130;8.158;2022-10-31T14:35:56;17.90;85.80
71188;DHT22;58893;53.130;8.158;2022-10-31T14:38:41;17.90;85.90
71188;DHT22;58893;53.130;8.158;2022-10-31T14:44:44;17.90;86.10
71188;DHT22;58893;53.130;8.158;2022-10-31T14:47:43;17.90;86.30
71188;DHT22;58893;53.130;8.158;2022-10-31T14:53:03;17.90;87.00
71188;DHT22;58893;53.130;8.158;2022-10-31T14:55:29;17.90;88.10
71188;DHT22;58893;53.130;8.158;2022-10-31T14:58:01;17.90;88.00
71188;DHT22;58893;53.130;8.158;2022-10-31T15:00:31;17.90;88.60
71188;DHT22;58893;53.130;8.158;2022-10-31T15:05:23;17.90;89.50
71188;DHT22;58893;53.130;8.158;2022-10-31T15:07:54;17.90;89.80
71188;DHT22;58893;53.130;8.158;2022-10-31T15:10:22;17.90;90.00
71188;DHT22;58893;53.130;8.158;2022-10-31T15:12:48;17.90;90.20
71188;DHT22;58893;53.130;8.158;2022-10-31T15:15:25;17.80;90.20
71188;DHT22;58893;53.130;8.158;2022-10-31T15:18:00;17.80;90.30
71188;DHT22;58893;53.130;8.158;2022-10-31T15:20:30;17.80;90.40
71188;DHT22;58893;53.130;8.158;2022-10-31T15:22:58;17.80;90.40
71188;DHT22;58893;53.130;8.158;2022-10-31T15:25:27;17.80;90.50
71188;DHT22;58893;53.130;8.158;2022-10-31T15:27:53;17.70;90.50
71188;DHT22;58893;53.130;8.158;2022-10-31T15:30:24;17.70;90.50
71188;DHT22;58893;53.130;8.158;2022-10-31T15:32:51;17.70;90.50
71188;DHT22;58893;53.130;8.158;2022-10-31T15:35:25;17.70;90.50
71188;DHT22;58893;53.130;8.158;2022-10-31T15:37:54;17.70;90.50
71188;DHT22;58893;53.130;8.158;2022-10-31T15:40:23;17.70;90.50
71188;DHT22;58893;53.130;8.158;2022-10-31T15:43:07;17.60;90.50
71188;DHT22;58893;53.130;8.158;2022-10-31T15:45:34;17.60;90.60
71188;DHT22;58893;53.130;8.158;2022-10-31T15:48:04;17.60;90.60
71188;DHT22;58893;53.130;8.158;2022-10-31T15:50:47;17.60;90.60
71188;DHT22;58893;53.130;8.158;2022-10-31T15:53:26;17.50;90.50
71188;DHT22;58893;53.130;8.158;2022-10-31T15:55:58;17.50;90.60
71188;DHT22;58893;53.130;8.158;2022-10-31T15:58:24;17.50;90.60
71188;DHT22;58893;53.130;8.158;2022-10-31T16:01:04;17.50;90.70
71188;DHT22;58893;53.130;8.158;2022-10-31T16:03:32;17.50;90.70
71188;DHT22;58893;53.130;8.158;2022-10-31T16:06:00;17.50;90.70
71188;DHT22;58893;53.130;8.158;2022-10-31T16:10:56;17.40;90.70
71188;DHT22;58893;53.130;8.158;2022-10-31T16:13:34;17.40;90.60
71188;DHT22;58893;53.130;8.158;2022-10-31T16:16:02;17.40;90.60
71188;DHT22;58893;53.130;8.158;2022-10-31T16:18:30;17.30;90.50
71188;DHT22;58893;53.130;8.158;2022-10-31T16:21:00;17.30;90.50
71188;DHT22;58893;53.130;8.158;2022-10-31T16:23:26;17.30;90.40
71188;DHT22;58893;53.130;8.158;2022-10-31T16:25:53;17.30;90.40
71188;DHT22;58893;53.130;8.158;2022-10-31T16:28:25;17.30;90.40
71188;DHT22;58893;53.130;8.158;2022-10-31T16:30:53;17.20;90.30
71188;DHT22;58893;53.130;8.158;2022-10-31T16:33:32;17.20;90.30
71188;DHT22;58893;53.130;8.158;2022-10-31T16:38:56;17.10;90.30
71188;DHT22;58893;53.130;8.158;2022-10-31T16:41:23;17.10;90.40
71188;DHT22;58893;53.130;8.158;2022-10-31T16:43:49;17.10;90.40
71188;DHT22;58893;53.130;8.158;2022-10-31T16:46:23;17.10;90.50
71188;DHT22;58893;53.130;8.158;2022-10-31T16:48:49;17.00;90.50
71188;DHT22;58893;53.130;8.158;2022-10-31T16:51:15;17.00;90.60
71188;DHT22;58893;53.130;8.158;2022-10-31T16:53:41;17.00;90.60
71188;DHT22;58893;53.130;8.158;2022-10-31T16:56:15;17.00;90.70
71188;DHT22;58893;53.130;8.158;2022-10-31T16:58:41;17.00;90.80
71188;DHT22;58893;53.130;8.158;2022-10-31T17:01:07;17.00;90.80
71188;DHT22;58893;53.130;8.158;2022-10-31T17:03:33;17.00;90.90
71188;DHT22;58893;53.130;8.158;2022-10-31T17:05:58;16.90;90.90
71188;DHT22;58893;53.130;8.158;2022-10-31T17:08:24;17.00;90.90
71188;DHT22;58893;53.130;8.158;2022-10-31T17:10:52;16.90;90.90
71188;DHT22;58893;53.130;8.158;2022-10-31T17:13:21;16.90;90.90
71188;DHT22;58893;53.130;8.158;2022-10-31T17:15:49;16.90;91.00
71188;DHT22;58893;53.130;8.158;2022-10-31T17:18:16;16.90;91.10
71188;DHT22;58893;53.130;8.158;2022-10-31T17:20:43;16.90;91.10
71188;DHT22;58893;53.130;8.158;2022-10-31T17:23:11;16.90;91.20
71188;DHT22;58893;53.130;8.158;2022-10-31T17:25:37;16.90;91.30
71188;DHT22;58893;53.130;8.158;2022-10-31T17:28:03;16.90;91.30
71188;DHT22;58893;53.130;8.158;2022-10-31T17:30:31;16.80;91.40
71188;DHT22;58893;53.130;8.158;2022-10-31T17:32:57;16.80;91.50
71188;DHT22;58893;53.130;8.158;2022-10-31T17:35:22;16.80;91.60
71188;DHT22;58893;53.130;8.158;2022-10-31T17:37:49;16.80;91.60
71188;DHT22;58893;53.130;8.158;2022-10-31T17:40:19;16.80;91.70
71188;DHT22;58893;53.130;8.158;2022-10-31T17:42:52;16.80;91.70
71188;DHT22;58893;53.130;8.158;2022-10-31T17:45:19;16.80;91.70
71188;DHT22;58893;53.130;8.158;2022-10-31T17:47:49;16.80;91.80
71188;DHT22;58893;53.130;8.158;2022-10-31T17:50:16;16.80;91.80
71188;DHT22;58893;53.130;8.158;2022-10-31T17:52:42;16.80;91.80
71188;DHT22;58893;53.130;8.158;2022-10-31T17:55:08;16.80;91.90